Terminal Aerodrome Forecast
Issued by NWS Burlington, VT

Home | Current Version | Previous Version | Text Only | Print | Product List | Glossary On
Versions: 1 2 3 4 5 6 7 8 9 10 11 12 13 14 15 16
000
FTUS41 KBTV 290537
TAFBTV
TAF
KBTV 290537Z 2906/3006 15007KT P6SM BKN120
     FM291400 15012G19KT P6SM VCSH BKN080
     FM291500 16012G19KT P6SM -SHRA OVC050
     FM291700 15011G17KT 6SM -SHRA BR OVC035
     FM292100 16011KT P6SM VCSH BKN035
     FM300100 16010KT P6SM SCT035=

USA.gov is the U.S. government's official web portal to all federal, state and local government web resources and services.